Time;durP1;ratioP1;P1;durP2;ratioP2;P2;SDS_P1;SDS_P2;PMS_P1;PMS_P2;Temp;Humidity;BMP_temperature;BMP_pressure;BME280_temperature;BME280_humidity;BME280_pressure;Samples;Min_cycle;Max_cycle;Signal;HPM_P1;HPM_P2
2022/07/08 00:00:17;;;;;;;1.60;0.80;;;15.70;99.90;;;;;;5091784;28;20410;-77
2022/07/08 00:02:43;;;;;;;2.80;1.10;;;15.70;99.90;;;;;;5091252;28;20176;-76
2022/07/08 00:05:09;;;;;;;1.87;0.90;;;15.70;99.90;;;;;;5092146;28;20425;-76
2022/07/08 00:07:34;;;;;;;5.73;0.90;;;15.70;99.90;;;;;;5090747;28;20662;-76
2022/07/08 00:10:00;;;;;;;1.50;0.77;;;15.70;99.90;;;;;;5091852;28;20662;-76
2022/07/08 00:12:26;;;;;;;3.40;1.50;;;15.70;99.90;;;;;;5091492;28;20199;-76
2022/07/08 00:14:52;;;;;;;4.40;1.30;;;15.60;99.90;;;;;;5092304;28;20414;-76
2022/07/08 00:17:17;;;;;;;3.60;1.37;;;15.60;99.80;;;;;;5106391;28;20217;-76
2022/07/08 00:19:43;;;;;;;3.13;1.47;;;15.50;99.60;;;;;;5092255;28;20184;-76
2022/07/08 00:22:08;;;;;;;5.40;1.57;;;15.40;99.40;;;;;;5091183;28;20180;-76
2022/07/08 00:24:34;;;;;;;2.80;1.10;;;15.40;99.90;;;;;;5091739;28;20172;-76
2022/07/08 00:27:00;;;;;;;3.10;0.90;;;15.30;99.90;;;;;;5091638;28;20269;-76
2022/07/08 00:29:25;;;;;;;7.37;1.90;;;15.20;99.90;;;;;;5091523;28;20200;-76
2022/07/08 00:31:51;;;;;;;3.60;1.20;;;15.10;99.90;;;;;;5091492;28;20247;-76
2022/07/08 00:34:17;;;;;;;13.70;1.83;;;15.20;99.90;;;;;;5091807;28;20185;-76
2022/07/08 00:36:42;;;;;;;12.30;1.43;;;15.00;98.70;;;;;;5091398;28;20173;-76
2022/07/08 00:39:08;;;;;;;9.27;1.80;;;15.00;98.70;;;;;;5086454;28;20266;-77
2022/07/08 00:41:34;;;;;;;3.80;1.40;;;14.90;97.60;;;;;;5106697;28;20203;-76
2022/07/08 00:43:59;;;;;;;2.30;1.27;;;14.80;96.30;;;;;;5083556;28;20268;-77
2022/07/08 00:46:25;;;;;;;4.60;1.00;;;14.70;95.70;;;;;;5097390;28;20195;-76
2022/07/08 00:48:51;;;;;;;8.40;2.80;;;14.70;95.70;;;;;;5091921;28;20180;-76
2022/07/08 00:51:18;;;;;;;5.00;1.43;;;14.60;96.00;;;;;;5077316;28;20493;-76
2022/07/08 00:53:50;;;;;;;6.03;2.10;;;14.50;96.10;;;;;;5096505;28;20176;-76
2022/07/08 00:56:16;;;;;;;4.90;1.30;;;14.40;96.20;;;;;;5077018;28;20406;-76
2022/07/08 00:58:42;;;;;;;8.27;1.77;;;14.40;96.50;;;;;;5093765;28;20450;-76
2022/07/08 01:01:08;;;;;;;3.80;1.50;;;14.30;96.40;;;;;;5092423;28;20476;-77
2022/07/08 01:03:34;;;;;;;10.03;1.90;;;14.20;96.70;;;;;;5103425;28;20203;-77
2022/07/08 01:06:00;;;;;;;5.27;1.57;;;14.10;96.80;;;;;;5115186;28;20180;-77
2022/07/08 01:08:26;;;;;;;9.63;2.20;;;14.00;96.70;;;;;;5114998;28;20414;-77
2022/07/08 01:10:53;;;;;;;2.63;1.53;;;13.90;96.10;;;;;;5116185;27;20210;-77
2022/07/08 01:13:19;;;;;;;3.37;1.87;;;13.90;95.80;;;;;;5108595;28;20172;-77
2022/07/08 01:15:45;;;;;;;7.10;2.30;;;13.80;95.70;;;;;;5106797;28;20501;-77
2022/07/08 01:18:40;;;;;;;2.80;1.40;;;13.80;95.70;;;;;;5116417;27;20441;-77
2022/07/08 01:21:07;;;;;;;5.73;1.80;;;13.70;95.70;;;;;;5111642;27;20481;-77
2022/07/08 01:23:33;;;;;;;5.87;1.93;;;13.60;96.00;;;;;;5114726;27;20425;-77
2022/07/08 01:25:59;;;;;;;7.70;1.40;;;13.60;96.20;;;;;;5114658;28;20420;-77
2022/07/08 01:28:26;;;;;;;5.20;2.10;;;13.50;96.20;;;;;;5114662;28;20561;-77
2022/07/08 01:30:51;;;;;;;4.37;1.80;;;13.40;95.90;;;;;;5114447;28;20449;-77
2022/07/08 01:33:17;;;;;;;3.30;1.63;;;13.40;95.80;;;;;;5114412;28;20424;-77
2022/07/08 01:35:43;;;;;;;3.30;1.20;;;13.30;95.90;;;;;;5114529;28;20534;-77
2022/07/08 01:38:09;;;;;;;3.73;1.77;;;13.30;96.20;;;;;;5110642;28;20184;-77
2022/07/08 01:40:35;;;;;;;3.67;1.63;;;13.30;96.00;;;;;;5107289;27;20195;-77
2022/07/08 01:43:00;;;;;;;5.13;1.63;;;13.20;96.10;;;;;;5121316;27;20187;-77
2022/07/08 01:45:26;;;;;;;5.93;1.90;;;13.20;96.30;;;;;;5113719;28;20180;-77
2022/07/08 01:47:52;;;;;;;4.83;1.50;;;13.10;96.30;;;;;;5114172;28;20175;-77
2022/07/08 01:50:17;;;;;;;1.90;1.37;;;13.10;96.60;;;;;;5114454;28;20229;-77
2022/07/08 01:52:43;;;;;;;5.60;2.07;;;13.10;96.60;;;;;;5108623;27;20168;-77
2022/07/08 01:55:09;;;;;;;9.83;1.70;;;13.00;96.60;;;;;;5114193;28;20254;-76
2022/07/08 01:57:34;;;;;;;10.03;2.27;;;13.00;96.90;;;;;;5113666;28;20722;-77
2022/07/08 02:00:00;;;;;;;4.93;1.90;;;12.90;97.00;;;;;;5114402;28;20221;-77
2022/07/08 02:02:26;;;;;;;8.10;1.93;;;12.90;96.90;;;;;;5113522;28;20218;-77
2022/07/08 02:04:52;;;;;;;4.07;1.50;;;12.80;97.30;;;;;;5114117;28;20445;-77
2022/07/08 02:07:18;;;;;;;12.10;2.73;;;12.80;97.50;;;;;;5114984;27;20278;-77
2022/07/08 02:09:43;;;;;;;4.20;1.87;;;12.70;97.60;;;;;;5133212;27;20195;-76
2022/07/08 02:12:19;;;;;;;20.37;2.57;;;12.70;97.70;;;;;;5120021;27;20644;-77
2022/07/08 02:14:48;;;;;;;2.67;1.57;;;12.70;98.00;;;;;;5099804;28;20164;-77
2022/07/08 02:17:15;;;;;;;5.30;2.00;;;12.70;97.90;;;;;;5113786;28;20434;-77
2022/07/08 02:19:41;;;;;;;4.90;1.80;;;12.70;97.80;;;;;;5113448;28;20455;-77
2022/07/08 02:22:08;;;;;;;4.03;1.90;;;12.60;97.90;;;;;;5113295;28;20421;-77
2022/07/08 02:24:34;;;;;;;4.77;1.70;;;12.60;97.90;;;;;;5113130;28;20410;-76
2022/07/08 02:26:59;;;;;;;5.83;2.13;;;12.60;98.00;;;;;;5113261;28;20500;-77
2022/07/08 02:29:25;;;;;;;3.63;1.60;;;12.50;98.10;;;;;;5111973;28;21058;-76
2022/07/08 02:31:51;;;;;;;5.93;2.73;;;12.50;98.30;;;;;;5113292;28;20168;-77
2022/07/08 02:34:17;;;;;;;6.07;2.30;;;12.50;98.40;;;;;;5113182;28;20172;-77
2022/07/08 02:36:43;;;;;;;7.17;2.10;;;12.40;98.40;;;;;;5113188;28;20960;-77
2022/07/08 02:39:08;;;;;;;6.23;2.07;;;12.40;98.60;;;;;;5107414;28;20642;-77
2022/07/08 02:41:38;;;;;;;3.50;1.53;;;12.30;98.60;;;;;;5124144;27;20591;-77
2022/07/08 02:44:04;;;;;;;6.00;1.90;;;12.30;98.80;;;;;;5123166;27;20175;-76
2022/07/08 02:46:30;;;;;;;6.97;2.17;;;12.20;99.00;;;;;;5114043;27;20766;-75
2022/07/08 02:48:55;;;;;;;7.63;2.00;;;12.20;99.00;;;;;;5125166;27;20414;-76
2022/07/08 02:51:21;;;;;;;4.83;1.97;;;12.20;99.10;;;;;;5111294;28;20255;-76
2022/07/08 02:53:46;;;;;;;3.33;1.90;;;12.10;99.00;;;;;;5110963;28;20222;-76
2022/07/08 02:56:12;;;;;;;9.20;1.97;;;12.10;99.00;;;;;;5111033;28;20176;-76
2022/07/08 02:58:38;;;;;;;14.23;2.33;;;12.00;99.20;;;;;;5112847;28;20255;-76
2022/07/08 03:01:04;;;;;;;4.90;1.97;;;12.00;99.30;;;;;;5112477;28;20175;-76
2022/07/08 03:03:30;;;;;;;5.33;1.97;;;12.00;99.30;;;;;;5112967;28;20412;-76
2022/07/08 03:05:55;;;;;;;8.93;2.17;;;12.00;99.70;;;;;;5112612;28;20629;-76
2022/07/08 03:08:21;;;;;;;6.50;2.27;;;12.00;99.80;;;;;;5112521;28;20685;-76
2022/07/08 03:10:47;;;;;;;9.23;2.47;;;11.90;99.70;;;;;;5125657;27;20696;-76
2022/07/08 03:13:12;;;;;;;11.83;1.90;;;11.80;99.80;;;;;;5112361;28;20164;-76
2022/07/08 03:15:38;;;;;;;10.20;2.27;;;11.80;99.90;;;;;;5126748;27;20535;-76
2022/07/08 03:18:04;;;;;;;2.80;1.83;;;11.70;99.90;;;;;;5112796;28;20512;-76
2022/07/08 03:20:29;;;;;;;4.70;1.60;;;11.60;99.90;;;;;;5112822;28;20222;-76
2022/07/08 03:22:55;;;;;;;9.00;2.63;;;11.60;99.90;;;;;;5111797;28;20176;-76
2022/07/08 03:25:21;;;;;;;6.10;1.33;;;11.50;99.90;;;;;;5112478;28;20540;-76
2022/07/08 03:27:48;;;;;;;5.53;1.30;;;11.60;99.90;;;;;;5112759;28;20182;-76
2022/07/08 03:30:14;;;;;;;8.17;2.07;;;11.60;99.90;;;;;;5120477;27;20247;-76
2022/07/08 03:32:40;;;;;;;5.63;2.60;;;11.60;99.90;;;;;;5118510;27;20413;-76
2022/07/08 03:35:06;;;;;;;5.03;1.60;;;11.60;99.90;;;;;;5112204;28;20242;-76
2022/07/08 03:37:31;;;;;;;3.30;1.67;;;11.60;99.90;;;;;;5112183;28;20656;-76
2022/07/08 03:41:19;;;;;;;2.80;2.00;;;11.60;99.90;;;;;;5108496;28;20473;-76
2022/07/08 03:42:42;;;;;;;6.03;2.30;;;11.50;99.90;;;;;;5125074;27;20266;-76
2022/07/08 03:45:08;;;;;;;8.63;2.03;;;11.50;99.90;;;;;;5103954;27;20500;-75
2022/07/08 03:47:35;;;;;;;5.97;1.40;;;11.50;99.90;;;;;;5133671;27;20258;-76
2022/07/08 03:50:00;;;;;;;7.10;2.03;;;11.40;99.90;;;;;;5135515;27;20552;-76
2022/07/08 03:52:26;;;;;;;3.77;2.07;;;11.40;99.90;;;;;;5136118;28;20400;-76
2022/07/08 03:54:51;;;;;;;5.90;1.60;;;11.50;99.90;;;;;;5149121;28;20171;-76
2022/07/08 03:57:17;;;;;;;5.03;1.87;;;11.50;99.90;;;;;;5129009;28;20195;-76
2022/07/08 03:59:43;;;;;;;4.30;2.13;;;11.50;99.90;;;;;;5125045;28;20203;-76
2022/07/08 04:02:08;;;;;;;17.20;2.10;;;11.60;99.90;;;;;;5099454;28;20176;-76
2022/07/08 04:04:34;;;;;;;5.60;1.93;;;11.70;99.90;;;;;;5113754;28;20180;-76
2022/07/08 04:07:00;;;;;;;3.97;1.83;;;11.70;99.90;;;;;;5113699;28;20187;-76
2022/07/08 04:09:25;;;;;;;6.70;1.83;;;11.70;99.90;;;;;;5115853;28;20202;-76
2022/07/08 04:11:52;;;;;;;3.47;1.60;;;11.70;99.90;;;;;;5121948;28;20731;-76
2022/07/08 04:14:17;;;;;;;11.97;2.30;;;11.70;99.90;;;;;;5112185;28;20195;-76
2022/07/08 04:16:43;;;;;;;10.03;2.13;;;11.80;99.90;;;;;;5112455;28;20417;-76
2022/07/08 04:19:09;;;;;;;6.13;1.87;;;11.80;99.90;;;;;;5111840;28;20543;-76
2022/07/08 04:21:34;;;;;;;3.60;1.30;;;11.80;99.90;;;;;;5111698;28;20270;-76
2022/07/08 04:24:00;;;;;;;6.70;2.00;;;11.80;99.90;;;;;;5112400;28;20707;-76
2022/07/08 04:26:31;;;;;;;5.33;1.90;;;11.80;99.90;;;;;;5112007;28;20188;-76
2022/07/08 04:28:58;;;;;;;4.17;1.63;;;11.80;99.90;;;;;;5111945;28;20421;-76
2022/07/08 04:31:24;;;;;;;3.40;1.50;;;11.80;99.90;;;;;;5111664;28;20422;-76
2022/07/08 04:33:49;;;;;;;6.93;2.57;;;11.70;99.90;;;;;;5114942;28;20773;-76
2022/07/08 04:36:15;;;;;;;7.23;2.03;;;11.70;99.90;;;;;;5115651;28;20421;-76
2022/07/08 04:38:41;;;;;;;4.87;1.63;;;11.70;99.90;;;;;;5116022;28;20172;-76
2022/07/08 04:41:07;;;;;;;12.50;2.63;;;11.80;99.90;;;;;;5118617;27;20183;-76
2022/07/08 04:43:32;;;;;;;8.13;2.30;;;11.80;99.90;;;;;;5129165;27;20405;-76
2022/07/08 04:45:58;;;;;;;3.73;1.27;;;11.80;99.90;;;;;;5115794;28;20187;-76
2022/07/08 04:48:24;;;;;;;4.13;1.50;;;11.90;99.90;;;;;;5116386;28;20180;-76
2022/07/08 04:50:50;;;;;;;9.77;2.50;;;11.90;99.90;;;;;;5115550;28;20239;-77
2022/07/08 04:53:16;;;;;;;10.20;2.33;;;11.90;99.90;;;;;;5113877;28;20445;-76
2022/07/08 04:55:41;;;;;;;13.87;2.30;;;11.90;99.90;;;;;;5115320;28;20255;-76
2022/07/08 04:58:07;;;;;;;6.00;1.87;;;12.00;99.90;;;;;;5115193;28;20630;-76
2022/07/08 05:00:34;;;;;;;12.13;1.57;;;12.00;99.90;;;;;;5115327;28;20188;-76
2022/07/08 05:03:00;;;;;;;9.90;2.03;;;12.10;99.90;;;;;;5114823;28;20172;-76
2022/07/08 05:05:27;;;;;;;7.70;1.70;;;12.10;99.90;;;;;;5115378;28;20422;-76
2022/07/08 05:07:53;;;;;;;11.40;2.30;;;12.20;99.90;;;;;;5115291;28;20799;-76
2022/07/08 05:10:23;;;;;;;6.73;1.80;;;12.20;99.80;;;;;;5126361;27;20501;-76
2022/07/08 05:12:49;;;;;;;3.47;2.00;;;12.20;99.40;;;;;;5116254;27;20925;-76
2022/07/08 05:15:15;;;;;;;7.30;1.80;;;12.20;99.60;;;;;;5114920;28;20438;-76
2022/07/08 05:17:41;;;;;;;3.77;1.70;;;12.30;99.60;;;;;;5114510;28;20480;-76
2022/07/08 05:20:09;;;;;;;4.20;2.00;;;12.30;99.80;;;;;;5115212;28;20413;-76
2022/07/08 05:22:35;;;;;;;5.30;1.70;;;12.30;99.60;;;;;;5103530;28;20626;-76
2022/07/08 05:25:03;;;;;;;3.57;1.73;;;12.30;99.90;;;;;;5114701;28;20793;-75
2022/07/08 05:27:29;;;;;;;8.07;2.13;;;12.40;99.70;;;;;;5128378;27;20416;-76
2022/07/08 05:29:55;;;;;;;5.30;1.83;;;12.40;99.30;;;;;;5120815;27;20565;-76
2022/07/08 05:32:21;;;;;;;5.23;2.30;;;12.40;99.40;;;;;;5123585;27;20263;-76
2022/07/08 05:34:47;;;;;;;4.17;1.50;;;12.40;99.40;;;;;;5114599;28;20490;-76
2022/07/08 05:37:12;;;;;;;7.53;2.30;;;12.50;99.20;;;;;;5114768;28;20172;-76
2022/07/08 05:39:39;;;;;;;8.00;2.00;;;12.50;99.60;;;;;;5114769;28;20219;-76
2022/07/08 05:42:09;;;;;;;5.80;1.63;;;12.50;99.60;;;;;;5106925;28;20188;-76
2022/07/08 05:44:36;;;;;;;7.40;2.30;;;12.60;99.30;;;;;;5123140;27;20508;-75
2022/07/08 05:47:02;;;;;;;4.30;1.70;;;12.60;98.80;;;;;;5099986;28;20917;-75
2022/07/08 05:49:28;;;;;;;4.80;1.27;;;12.70;98.70;;;;;;5113738;28;20469;-75
2022/07/08 05:51:54;;;;;;;5.13;1.77;;;12.70;98.60;;;;;;5113550;28;20414;-75
2022/07/08 05:54:20;;;;;;;4.27;1.97;;;12.80;98.50;;;;;;5114443;28;20655;-75
2022/07/08 05:56:46;;;;;;;7.93;1.77;;;12.80;98.40;;;;;;5114478;28;20760;-75
2022/07/08 05:59:12;;;;;;;5.43;2.27;;;12.80;98.50;;;;;;5113963;28;20422;-75
2022/07/08 06:01:37;;;;;;;4.50;1.70;;;12.90;98.40;;;;;;5113657;28;20621;-75
2022/07/08 06:04:03;;;;;;;8.10;2.13;;;12.90;98.00;;;;;;5114227;28;20222;-75
2022/07/08 06:06:29;;;;;;;8.50;1.90;;;13.00;98.00;;;;;;5114609;28;20186;-75
2022/07/08 06:08:54;;;;;;;4.70;1.80;;;12.90;97.80;;;;;;5114361;28;20262;-75
2022/07/08 06:11:20;;;;;;;2.80;1.40;;;13.00;97.70;;;;;;5127184;27;20263;-75
2022/07/08 06:13:46;;;;;;;6.93;1.70;;;13.10;97.90;;;;;;5114453;28;20213;-76
2022/07/08 06:16:11;;;;;;;8.60;2.10;;;13.20;98.20;;;;;;5114002;28;20176;-75
2022/07/08 06:18:37;;;;;;;4.90;1.27;;;13.30;97.70;;;;;;5114484;28;20191;-75
2022/07/08 06:21:03;;;;;;;6.47;2.10;;;13.30;97.70;;;;;;5113510;28;20192;-76
2022/07/08 06:23:29;;;;;;;3.23;1.93;;;13.40;97.50;;;;;;5113970;28;20176;-76
2022/07/08 06:25:54;;;;;;;4.13;1.37;;;13.40;97.00;;;;;;5114319;28;20279;-76
2022/07/08 06:28:20;;;;;;;4.27;1.57;;;13.60;97.30;;;;;;5113927;28;20497;-75
2022/07/08 06:30:46;;;;;;;2.60;1.27;;;13.70;96.00;;;;;;5126637;27;20195;-75
2022/07/08 06:33:11;;;;;;;5.90;1.30;;;13.80;95.50;;;;;;5115839;27;20172;-76
2022/07/08 06:35:37;;;;;;;6.13;1.23;;;13.80;95.30;;;;;;5113708;28;20595;-76
2022/07/08 06:38:03;;;;;;;4.13;1.40;;;13.80;95.10;;;;;;5115761;27;20633;-77
2022/07/08 06:40:29;;;;;;;2.93;1.63;;;13.90;95.40;;;;;;5118245;27;20176;-76
2022/07/08 06:42:54;;;;;;;4.43;1.40;;;14.10;95.90;;;;;;5100353;28;20533;-76
2022/07/08 06:45:20;;;;;;;4.47;1.10;;;14.20;93.60;;;;;;5101373;27;20641;-76
2022/07/08 06:47:46;;;;;;;5.27;1.00;;;14.20;93.20;;;;;;5106932;28;20236;-76
2022/07/08 06:50:12;;;;;;;9.77;1.33;;;14.10;93.90;;;;;;5098102;28;20673;-75
2022/07/08 06:52:38;;;;;;;8.33;2.00;;;14.10;93.20;;;;;;5100400;27;20184;-75
2022/07/08 06:55:04;;;;;;;3.43;1.17;;;14.20;93.10;;;;;;5106883;27;20644;-75
2022/07/08 06:57:30;;;;;;;2.53;1.27;;;14.30;93.00;;;;;;5108143;28;20409;-75
2022/07/08 06:59:56;;;;;;;3.30;1.30;;;14.40;93.50;;;;;;5115270;28;20417;-77
2022/07/08 07:02:22;;;;;;;2.93;1.20;;;14.50;93.30;;;;;;5114042;28;20545;-74
2022/07/08 07:04:47;;;;;;;2.90;1.00;;;14.70;93.10;;;;;;5107593;28;20187;-76
2022/07/08 07:07:13;;;;;;;2.83;0.97;;;14.80;91.60;;;;;;5111455;28;20460;-76
2022/07/08 07:09:39;;;;;;;2.53;1.20;;;14.90;92.60;;;;;;5107284;28;20844;-76
2022/07/08 07:12:09;;;;;;;10.67;1.67;;;15.00;92.40;;;;;;5117837;27;20172;-76
2022/07/08 07:14:35;;;;;;;4.73;1.50;;;15.30;91.90;;;;;;5117278;28;20179;-76
2022/07/08 07:17:00;;;;;;;2.70;0.80;;;15.70;90.70;;;;;;5107734;27;20883;-76
2022/07/08 07:19:29;;;;;;;3.93;0.90;;;16.10;88.30;;;;;;5107561;27;20187;-75
2022/07/08 07:21:54;;;;;;;4.60;1.27;;;16.40;88.20;;;;;;5126556;28;20183;-76
2022/07/08 07:24:21;;;;;;;8.63;1.53;;;16.60;87.40;;;;;;5124332;28;20456;-76
2022/07/08 07:26:47;;;;;;;3.00;0.93;;;16.40;86.30;;;;;;5117084;28;20185;-75
2022/07/08 07:29:13;;;;;;;6.00;1.63;;;16.10;91.00;;;;;;5123479;28;20421;-75
2022/07/08 07:31:38;;;;;;;2.20;0.90;;;16.20;89.50;;;;;;5124515;28;20421;-75
2022/07/08 07:34:04;;;;;;;6.57;1.40;;;16.00;90.40;;;;;;5138807;28;20176;-75
2022/07/08 07:36:30;;;;;;;2.13;0.90;;;15.80;90.50;;;;;;5134868;28;20224;-75
2022/07/08 07:38:56;;;;;;;6.03;1.10;;;15.70;91.00;;;;;;5132640;28;20168;-75
2022/07/08 07:41:22;;;;;;;3.93;1.10;;;15.90;90.20;;;;;;5138602;28;20386;-75
2022/07/08 07:43:48;;;;;;;2.90;1.10;;;15.80;90.30;;;;;;5125931;28;20633;-76
2022/07/08 07:46:14;;;;;;;3.53;1.00;;;15.80;90.10;;;;;;5120334;28;20207;-75
2022/07/08 07:48:40;;;;;;;6.60;1.23;;;15.70;90.10;;;;;;5117229;28;20638;-75
2022/07/08 07:51:05;;;;;;;7.03;1.40;;;15.80;90.50;;;;;;5113881;28;20488;-75
2022/07/08 07:53:31;;;;;;;2.77;0.87;;;15.80;90.20;;;;;;5129092;28;20209;-75
2022/07/08 07:55:59;;;;;;;4.33;0.97;;;15.90;90.20;;;;;;5112692;28;20175;-75
2022/07/08 07:58:25;;;;;;;8.73;1.63;;;15.90;90.00;;;;;;5125688;28;20179;-75
2022/07/08 08:00:51;;;;;;;3.20;1.20;;;15.80;90.30;;;;;;5112644;28;20884;-75
2022/07/08 08:03:17;;;;;;;3.97;1.33;;;15.80;90.40;;;;;;5104899;28;20253;-75
2022/07/08 08:05:43;;;;;;;4.00;1.40;;;15.90;90.70;;;;;;5118027;28;20875;-75
2022/07/08 08:08:10;;;;;;;6.23;1.53;;;16.40;89.30;;;;;;5106976;28;20518;-75
2022/07/08 08:10:36;;;;;;;4.20;1.57;;;16.90;88.00;;;;;;5108096;28;20224;-76
2022/07/08 08:13:02;;;;;;;7.97;1.17;;;17.00;85.90;;;;;;5116433;28;20452;-76
2022/07/08 08:15:29;;;;;;;5.57;1.20;;;16.80;89.30;;;;;;5116534;27;20792;-75
2022/07/08 08:17:56;;;;;;;13.63;1.40;;;16.70;87.20;;;;;;5109516;28;20195;-75
2022/07/08 08:20:29;;;;;;;4.70;1.10;;;16.70;89.50;;;;;;5108188;28;20749;-76
2022/07/08 08:22:55;;;;;;;2.03;0.80;;;17.40;86.10;;;;;;5112980;27;20467;-76
2022/07/08 08:25:21;;;;;;;5.47;1.70;;;18.00;84.00;;;;;;5115155;28;20472;-76
2022/07/08 08:27:47;;;;;;;2.53;1.00;;;18.90;81.50;;;;;;5113050;28;20417;-75
2022/07/08 08:30:15;;;;;;;5.07;1.23;;;20.50;78.80;;;;;;5107814;28;20795;-76
2022/07/08 08:32:41;;;;;;;3.20;1.00;;;21.20;75.00;;;;;;5108078;28;20457;-76
2022/07/08 08:35:07;;;;;;;3.60;1.00;;;21.70;73.70;;;;;;5103068;28;20447;-76
2022/07/08 08:37:33;;;;;;;3.63;1.10;;;22.10;73.20;;;;;;5106096;28;20176;-77
2022/07/08 08:40:10;;;;;;;2.57;1.20;;;22.70;70.00;;;;;;5114666;28;20416;-77
2022/07/08 08:42:37;;;;;;;7.53;1.30;;;22.60;67.60;;;;;;5099954;28;20187;-77
2022/07/08 08:45:04;;;;;;;7.50;2.70;;;22.60;68.00;;;;;;5119572;28;20424;-77
2022/07/08 08:47:31;;;;;;;7.90;1.30;;;23.00;66.80;;;;;;5111200;28;20435;-77
2022/07/08 08:50:53;;;;;;;6.73;1.03;;;22.80;67.20;;;;;;5101090;28;20481;-77
2022/07/08 08:52:50;;;;;;;2.97;1.40;;;23.80;65.20;;;;;;5101497;28;20591;-77
2022/07/08 08:55:26;;;;;;;10.50;1.50;;;23.70;66.10;;;;;;5099313;28;20172;-77
2022/07/08 08:57:54;;;;;;;4.90;1.50;;;24.20;63.80;;;;;;5105287;28;20170;-78
2022/07/08 09:00:21;;;;;;;5.43;1.50;;;23.70;66.60;;;;;;5104191;28;20184;-79
2022/07/08 09:02:46;;;;;;;7.70;1.40;;;24.20;63.60;;;;;;5105674;28;20288;-79
2022/07/08 09:05:13;;;;;;;6.60;1.27;;;23.80;63.40;;;;;;5104093;28;20713;-79
2022/07/08 09:07:39;;;;;;;16.07;1.20;;;23.30;63.60;;;;;;5102989;28;20186;-79
2022/07/08 09:10:06;;;;;;;1.90;0.90;;;22.60;63.60;;;;;;5101470;28;20235;-77
2022/07/08 09:12:32;;;;;;;4.40;1.00;;;22.40;65.20;;;;;;5104061;28;20180;-77
2022/07/08 09:15:00;;;;;;;3.40;1.07;;;21.80;67.00;;;;;;5101770;28;20420;-77
2022/07/08 09:17:26;;;;;;;3.90;1.33;;;21.00;68.00;;;;;;5067349;28;1158006;-76
2022/07/08 09:19:52;;;;;;;7.90;0.83;;;20.20;68.80;;;;;;5101696;28;20271;-76
2022/07/08 09:22:21;;;;;;;2.33;0.90;;;20.30;71.00;;;;;;5113982;28;20184;-77
2022/07/08 09:24:47;;;;;;;7.10;1.07;;;20.50;73.60;;;;;;5121754;28;20190;-77
2022/07/08 09:27:13;;;;;;;4.23;1.10;;;20.60;72.10;;;;;;5116055;28;20433;-77
2022/07/08 09:29:54;;;;;;;7.20;1.17;;;21.40;68.80;;;;;;5116826;28;20238;-77
2022/07/08 09:32:19;;;;;;;4.63;1.13;;;22.20;65.90;;;;;;5114110;28;20409;-77
2022/07/08 09:34:45;;;;;;;8.00;1.20;;;22.40;67.10;;;;;;5113649;28;20409;-77
2022/07/08 09:37:12;;;;;;;7.73;1.70;;;22.40;64.80;;;;;;5116633;27;20236;-78
2022/07/08 09:39:39;;;;;;;7.43;1.10;;;22.50;65.60;;;;;;5110342;27;20620;-78
2022/07/08 09:42:09;;;;;;;5.27;1.73;;;22.40;68.50;;;;;;5110328;28;20210;-77
2022/07/08 09:44:37;;;;;;;8.93;1.17;;;22.20;65.80;;;;;;5109419;28;20207;-77
2022/07/08 09:47:14;;;;;;;2.53;1.10;;;22.60;65.00;;;;;;5106004;27;20188;-77
2022/07/08 09:49:45;;;;;;;1.93;1.00;;;21.90;67.40;;;;;;5115132;27;20301;-77
2022/07/08 09:52:18;;;;;;;2.33;1.30;;;22.20;66.40;;;;;;5112956;27;20429;-77
2022/07/08 09:54:44;;;;;;;8.27;1.50;;;22.10;67.80;;;;;;5107383;28;20509;-77
2022/07/08 09:57:13;;;;;;;2.20;1.17;;;22.30;65.90;;;;;;5105279;27;20903;-78
2022/07/08 09:59:39;;;;;;;4.53;1.00;;;22.10;65.00;;;;;;5101026;28;20206;-77
2022/07/08 10:02:05;;;;;;;3.00;1.20;;;22.20;65.60;;;;;;5102719;27;20422;-78
2022/07/08 10:04:31;;;;;;;3.60;0.97;;;22.10;65.70;;;;;;5104338;28;20573;-78
2022/07/08 10:06:58;;;;;;;3.27;1.17;;;22.00;69.80;;;;;;5099145;28;20512;-77
2022/07/08 10:09:25;;;;;;;2.87;1.20;;;22.40;66.10;;;;;;5101632;27;21065;-77
2022/07/08 10:11:53;;;;;;;4.93;2.13;;;22.60;64.90;;;;;;5109091;28;20421;-77
2022/07/08 10:14:19;;;;;;;2.10;1.00;;;22.50;65.10;;;;;;5105553;28;20439;-77
2022/07/08 10:16:49;;;;;;;3.10;1.20;;;22.10;67.10;;;;;;5101281;28;20786;-78
2022/07/08 10:19:27;;;;;;;3.77;1.33;;;22.00;64.50;;;;;;5101592;28;20410;-77
2022/07/08 10:21:55;;;;;;;4.80;1.43;;;21.80;65.90;;;;;;5107153;28;20756;-77
2022/07/08 10:24:27;;;;;;;2.60;1.53;;;21.80;66.40;;;;;;5120180;27;20417;-77
2022/07/08 10:26:58;;;;;;;7.07;1.17;;;21.50;67.10;;;;;;5114110;27;20421;-77
2022/07/08 10:29:31;;;;;;;8.23;1.67;;;21.30;66.70;;;;;;5114144;27;20457;-77
2022/07/08 10:31:58;;;;;;;5.73;1.10;;;21.30;71.90;;;;;;5113092;28;20504;-77
2022/07/08 10:34:30;;;;;;;5.27;1.57;;;21.40;68.10;;;;;;5112162;28;20431;-77
2022/07/08 10:36:56;;;;;;;3.87;1.30;;;21.40;66.70;;;;;;5098499;28;20418;-76
2022/07/08 10:39:25;;;;;;;4.00;0.90;;;21.40;67.40;;;;;;5104359;27;20418;-76
2022/07/08 10:42:05;;;;;;;3.43;1.30;;;21.30;68.50;;;;;;5104804;28;20211;-75
2022/07/08 10:44:43;;;;;;;1.77;0.70;;;21.10;67.70;;;;;;5112612;27;20469;-75
2022/07/08 10:47:15;;;;;;;5.20;0.80;;;20.80;67.50;;;;;;5100007;28;20407;-75
2022/07/08 10:49:45;;;;;;;2.37;0.90;;;20.80;69.60;;;;;;5113776;27;20825;-76
2022/07/08 10:52:12;;;;;;;3.20;0.80;;;21.00;67.40;;;;;;5112314;28;20410;-75
2022/07/08 10:54:38;;;;;;;5.10;0.80;;;20.90;68.30;;;;;;5113179;27;20910;-75
2022/07/08 10:57:07;;;;;;;2.57;1.00;;;20.90;70.20;;;;;;5113949;27;20463;-75
2022/07/08 10:59:37;;;;;;;7.90;1.53;;;21.00;68.60;;;;;;5109694;27;20267;-76
2022/07/08 11:02:22;;;;;;;4.80;1.70;;;21.10;68.10;;;;;;5112366;28;20466;-75
2022/07/08 11:04:51;;;;;;;3.00;1.17;;;20.80;69.00;;;;;;5111346;28;21082;-75
2022/07/08 11:07:37;;;;;;;2.97;1.30;;;20.60;71.60;;;;;;5099546;28;20422;-75
2022/07/08 11:10:13;;;;;;;2.50;0.90;;;20.70;70.60;;;;;;5105236;28;20511;-75
2022/07/08 11:12:39;;;;;;;2.40;1.10;;;20.60;69.90;;;;;;5092739;28;20425;-76
2022/07/08 11:15:18;;;;;;;2.80;1.00;;;20.80;69.40;;;;;;5098894;28;20767;-76
2022/07/08 11:17:48;;;;;;;5.13;1.17;;;21.00;68.60;;;;;;5108033;28;20266;-76
2022/07/08 11:20:15;;;;;;;4.27;1.27;;;21.00;68.60;;;;;;5107674;28;20413;-75
2022/07/08 11:22:43;;;;;;;2.43;0.90;;;21.20;66.30;;;;;;5109269;28;20759;-76
2022/07/08 11:25:12;;;;;;;3.20;0.83;;;21.20;67.00;;;;;;5116841;28;20416;-76
2022/07/08 11:27:38;;;;;;;2.70;1.00;;;21.20;67.50;;;;;;5123376;28;20481;-76
2022/07/08 11:30:12;;;;;;;3.00;1.10;;;21.20;68.00;;;;;;5118921;27;20856;-75
2022/07/08 11:32:38;;;;;;;3.60;1.10;;;;;;;;;;5120026;27;20409;-77
2022/07/08 11:35:04;;;;;;;4.10;1.00;;;20.90;68.00;;;;;;5113643;28;20406;-79
2022/07/08 11:37:32;;;;;;;3.70;1.17;;;21.10;66.90;;;;;;5112130;28;20926;-76
2022/07/08 11:39:59;;;;;;;3.10;1.00;;;21.10;67.80;;;;;;5115294;27;20412;-77
2022/07/08 11:42:24;;;;;;;12.87;1.40;;;21.20;66.20;;;;;;5135380;27;20993;-77
2022/07/08 11:44:51;;;;;;;5.10;1.43;;;21.50;65.80;;;;;;5139303;27;20409;-76
2022/07/08 11:47:21;;;;;;;6.40;1.13;;;21.30;68.30;;;;;;5114296;28;20275;-78
2022/07/08 11:49:48;;;;;;;1.90;1.00;;;21.30;69.00;;;;;;5125249;27;20454;-76
2022/07/08 11:52:16;;;;;;;5.57;1.50;;;21.60;68.60;;;;;;5114263;28;20481;-77
2022/07/08 11:54:45;;;;;;;5.00;1.67;;;21.80;66.10;;;;;;5104250;28;20446;-77
2022/07/08 11:57:12;;;;;;;2.50;1.10;;;;;;;;;;5098762;28;21268;-76
2022/07/08 11:59:37;;;;;;;2.43;0.70;;;21.70;64.70;;;;;;5103418;28;20422;-76
2022/07/08 12:02:04;;;;;;;11.00;1.40;;;21.50;65.80;;;;;;5105328;28;20421;-76
2022/07/08 12:04:30;;;;;;;9.60;2.00;;;21.70;66.90;;;;;;5101598;28;20262;-76
2022/07/08 12:07:00;;;;;;;2.17;1.00;;;21.70;66.30;;;;;;5102004;28;20421;-77
2022/07/08 12:09:29;;;;;;;3.73;0.90;;;21.60;66.70;;;;;;5110249;28;20564;-76
2022/07/08 12:11:56;;;;;;;4.53;1.07;;;21.40;67.60;;;;;;5104590;28;20410;-77
2022/07/08 12:14:23;;;;;;;3.83;0.90;;;21.40;68.00;;;;;;5104765;28;20425;-76
2022/07/08 12:16:54;;;;;;;4.87;1.00;;;21.50;69.20;;;;;;5116908;28;20523;-77
2022/07/08 12:19:36;;;;;;;5.70;0.90;;;21.60;67.60;;;;;;5104587;28;20417;-77
2022/07/08 12:22:07;;;;;;;4.43;0.90;;;21.70;66.20;;;;;;5103643;28;20496;-76
2022/07/08 12:24:39;;;;;;;1.67;0.70;;;21.50;68.30;;;;;;5098917;28;20428;-76
2022/07/08 12:27:07;;;;;;;12.33;1.43;;;21.60;67.30;;;;;;5118069;28;20425;-76
2022/07/08 12:29:36;;;;;;;1.67;0.77;;;21.70;67.60;;;;;;5108038;28;20452;-76
2022/07/08 12:32:03;;;;;;;7.27;1.23;;;21.70;67.20;;;;;;5107105;28;20433;-76
2022/07/08 12:34:29;;;;;;;2.27;0.93;;;21.70;66.40;;;;;;5109594;28;20429;-77
2022/07/08 12:37:16;;;;;;;7.63;1.33;;;21.90;65.40;;;;;;5103415;28;20429;-76
2022/07/08 12:39:42;;;;;;;4.80;1.00;;;21.90;66.30;;;;;;5105416;28;20183;-76
2022/07/08 12:42:08;;;;;;;5.00;1.10;;;22.00;64.60;;;;;;5105468;28;20983;-76
2022/07/08 12:44:39;;;;;;;2.60;1.00;;;21.90;67.70;;;;;;5096569;28;21191;-76